sensor_id;sensor_type;location;lat;lon;timestamp;P1;durP1;ratioP1;P2;durP2;ratioP2
39728;SDS011;25402;42.004;23.088;2022-11-20T00:00:17;14.40;;;3.20;;
39728;SDS011;25402;42.004;23.088;2022-11-20T00:02:47;10.50;;;2.55;;
39728;SDS011;25402;42.004;23.088;2022-11-20T00:05:20;10.32;;;2.47;;
39728;SDS011;25402;42.004;23.088;2022-11-20T00:07:55;12.13;;;2.67;;
39728;SDS011;25402;42.004;23.088;2022-11-20T00:10:29;11.68;;;2.83;;
39728;SDS011;25402;42.004;23.088;2022-11-20T00:13:00;9.73;;;2.65;;
39728;SDS011;25402;42.004;23.088;2022-11-20T00:15:31;9.35;;;2.70;;
39728;SDS011;25402;42.004;23.088;2022-11-20T00:18:08;36.65;;;4.07;;
39728;SDS011;25402;42.004;23.088;2022-11-20T00:20:35;9.02;;;2.65;;
39728;SDS011;25402;42.004;23.088;2022-11-20T00:23:15;8.75;;;2.90;;
39728;SDS011;25402;42.004;23.088;2022-11-20T00:25:44;14.90;;;2.63;;
39728;SDS011;25402;42.004;23.088;2022-11-20T00:28:17;9.60;;;2.88;;
39728;SDS011;25402;42.004;23.088;2022-11-20T00:30:45;15.27;;;3.10;;
39728;SDS011;25402;42.004;23.088;2022-11-20T00:33:20;14.68;;;3.05;;
39728;SDS011;25402;42.004;23.088;2022-11-20T00:36:00;11.70;;;3.00;;
39728;SDS011;25402;42.004;23.088;2022-11-20T00:38:33;8.07;;;2.63;;
39728;SDS011;25402;42.004;23.088;2022-11-20T00:41:15;9.07;;;2.70;;
39728;SDS011;25402;42.004;23.088;2022-11-20T00:43:46;12.60;;;2.90;;
39728;SDS011;25402;42.004;23.088;2022-11-20T00:46:15;14.15;;;2.83;;
39728;SDS011;25402;42.004;23.088;2022-11-20T00:49:02;5.70;;;2.13;;
39728;SDS011;25402;42.004;23.088;2022-11-20T00:51:33;7.50;;;2.53;;
39728;SDS011;25402;42.004;23.088;2022-11-20T00:54:03;9.43;;;2.75;;
39728;SDS011;25402;42.004;23.088;2022-11-20T00:56:40;8.43;;;3.35;;
39728;SDS011;25402;42.004;23.088;2022-11-20T00:59:11;4.70;;;2.28;;
39728;SDS011;25402;42.004;23.088;2022-11-20T01:01:40;12.88;;;2.88;;
39728;SDS011;25402;42.004;23.088;2022-11-20T01:04:08;10.52;;;2.90;;
39728;SDS011;25402;42.004;23.088;2022-11-20T01:06:49;7.50;;;2.58;;
39728;SDS011;25402;42.004;23.088;2022-11-20T01:09:18;11.40;;;2.60;;
39728;SDS011;25402;42.004;23.088;2022-11-20T01:11:49;10.73;;;2.47;;
39728;SDS011;25402;42.004;23.088;2022-11-20T01:14:23;10.00;;;2.60;;
39728;SDS011;25402;42.004;23.088;2022-11-20T01:17:02;7.75;;;2.42;;
39728;SDS011;25402;42.004;23.088;2022-11-20T01:19:41;9.90;;;2.50;;
39728;SDS011;25402;42.004;23.088;2022-11-20T01:22:15;12.32;;;2.45;;
39728;SDS011;25402;42.004;23.088;2022-11-20T01:27:43;10.35;;;2.50;;
39728;SDS011;25402;42.004;23.088;2022-11-20T01:30:15;10.25;;;2.50;;
39728;SDS011;25402;42.004;23.088;2022-11-20T01:32:44;8.48;;;2.70;;
39728;SDS011;25402;42.004;23.088;2022-11-20T01:35:11;7.35;;;2.35;;
39728;SDS011;25402;42.004;23.088;2022-11-20T01:37:41;7.07;;;2.25;;
39728;SDS011;25402;42.004;23.088;2022-11-20T01:40:13;5.22;;;1.88;;
39728;SDS011;25402;42.004;23.088;2022-11-20T01:42:55;5.72;;;2.33;;
39728;SDS011;25402;42.004;23.088;2022-11-20T01:45:52;9.38;;;2.33;;
39728;SDS011;25402;42.004;23.088;2022-11-20T01:48:37;8.52;;;2.28;;
39728;SDS011;25402;42.004;23.088;2022-11-20T01:51:19;6.13;;;1.73;;
39728;SDS011;25402;42.004;23.088;2022-11-20T01:54:00;6.55;;;2.00;;
39728;SDS011;25402;42.004;23.088;2022-11-20T01:56:36;7.43;;;1.98;;
39728;SDS011;25402;42.004;23.088;2022-11-20T01:59:10;10.13;;;2.25;;
39728;SDS011;25402;42.004;23.088;2022-11-20T02:01:42;7.00;;;2.00;;
39728;SDS011;25402;42.004;23.088;2022-11-20T02:04:13;5.40;;;1.83;;
39728;SDS011;25402;42.004;23.088;2022-11-20T02:06:48;9.68;;;1.90;;
39728;SDS011;25402;42.004;23.088;2022-11-20T02:09:20;11.30;;;2.30;;
39728;SDS011;25402;42.004;23.088;2022-11-20T02:11:56;8.32;;;1.80;;
39728;SDS011;25402;42.004;23.088;2022-11-20T02:14:27;11.55;;;2.75;;
39728;SDS011;25402;42.004;23.088;2022-11-20T02:16:55;6.28;;;2.25;;
39728;SDS011;25402;42.004;23.088;2022-11-20T02:19:26;10.45;;;2.28;;
39728;SDS011;25402;42.004;23.088;2022-11-20T02:22:10;17.08;;;2.20;;
39728;SDS011;25402;42.004;23.088;2022-11-20T02:27:34;13.88;;;2.85;;
39728;SDS011;25402;42.004;23.088;2022-11-20T02:30:04;8.13;;;1.98;;
39728;SDS011;25402;42.004;23.088;2022-11-20T02:32:36;6.60;;;2.08;;
39728;SDS011;25402;42.004;23.088;2022-11-20T02:35:08;11.93;;;2.03;;
39728;SDS011;25402;42.004;23.088;2022-11-20T02:37:54;6.10;;;1.67;;
39728;SDS011;25402;42.004;23.088;2022-11-20T02:40:27;7.70;;;1.88;;
39728;SDS011;25402;42.004;23.088;2022-11-20T02:42:57;9.85;;;2.13;;
39728;SDS011;25402;42.004;23.088;2022-11-20T02:45:24;6.32;;;1.70;;
39728;SDS011;25402;42.004;23.088;2022-11-20T02:47:55;6.75;;;1.73;;
39728;SDS011;25402;42.004;23.088;2022-11-20T02:50:29;5.50;;;2.15;;
39728;SDS011;25402;42.004;23.088;2022-11-20T02:52:59;11.05;;;1.95;;
39728;SDS011;25402;42.004;23.088;2022-11-20T02:55:30;6.95;;;2.15;;
39728;SDS011;25402;42.004;23.088;2022-11-20T02:57:59;8.57;;;2.15;;
39728;SDS011;25402;42.004;23.088;2022-11-20T03:00:41;6.05;;;1.95;;
39728;SDS011;25402;42.004;23.088;2022-11-20T03:03:11;6.25;;;2.05;;
39728;SDS011;25402;42.004;23.088;2022-11-20T03:05:51;4.20;;;1.95;;
39728;SDS011;25402;42.004;23.088;2022-11-20T03:08:21;14.13;;;2.25;;
39728;SDS011;25402;42.004;23.088;2022-11-20T03:11:01;8.80;;;1.90;;
39728;SDS011;25402;42.004;23.088;2022-11-20T03:13:32;6.30;;;1.75;;
39728;SDS011;25402;42.004;23.088;2022-11-20T03:16:08;7.75;;;1.95;;
39728;SDS011;25402;42.004;23.088;2022-11-20T03:18:40;6.85;;;1.80;;
39728;SDS011;25402;42.004;23.088;2022-11-20T03:31:44;8.88;;;1.70;;
39728;SDS011;25402;42.004;23.088;2022-11-20T03:34:13;5.93;;;2.15;;
39728;SDS011;25402;42.004;23.088;2022-11-20T03:36:42;10.05;;;2.20;;
39728;SDS011;25402;42.004;23.088;2022-11-20T03:39:26;7.07;;;2.25;;
39728;SDS011;25402;42.004;23.088;2022-11-20T03:42:08;6.05;;;1.80;;
39728;SDS011;25402;42.004;23.088;2022-11-20T03:44:56;6.82;;;1.83;;
39728;SDS011;25402;42.004;23.088;2022-11-20T03:47:27;8.70;;;2.30;;
39728;SDS011;25402;42.004;23.088;2022-11-20T03:49:59;5.03;;;2.03;;
39728;SDS011;25402;42.004;23.088;2022-11-20T03:52:26;7.03;;;2.08;;
39728;SDS011;25402;42.004;23.088;2022-11-20T03:54:54;10.43;;;1.98;;
39728;SDS011;25402;42.004;23.088;2022-11-20T03:57:27;4.78;;;1.88;;
39728;SDS011;25402;42.004;23.088;2022-11-20T03:59:56;5.38;;;1.98;;
39728;SDS011;25402;42.004;23.088;2022-11-20T04:02:31;5.45;;;1.95;;
39728;SDS011;25402;42.004;23.088;2022-11-20T06:01:37;7.85;;;1.70;;
39728;SDS011;25402;42.004;23.088;2022-11-20T06:20:21;4.50;;;1.60;;
39728;SDS011;25402;42.004;23.088;2022-11-20T10:04:00;20.38;;;3.28;;
39728;SDS011;25402;42.004;23.088;2022-11-20T10:07:01;20.33;;;3.15;;
39728;SDS011;25402;42.004;23.088;2022-11-20T10:14:54;15.88;;;2.97;;
39728;SDS011;25402;42.004;23.088;2022-11-20T10:18:09;17.02;;;2.88;;
39728;SDS011;25402;42.004;23.088;2022-11-20T14:24:12;20.15;;;2.42;;
39728;SDS011;25402;42.004;23.088;2022-11-20T14:26:47;17.38;;;3.03;;
39728;SDS011;25402;42.004;23.088;2022-11-20T14:29:16;15.75;;;3.10;;
39728;SDS011;25402;42.004;23.088;2022-11-20T14:31:50;18.38;;;2.90;;
39728;SDS011;25402;42.004;23.088;2022-11-20T14:34:21;17.30;;;2.53;;
39728;SDS011;25402;42.004;23.088;2022-11-20T14:37:02;17.48;;;3.03;;
39728;SDS011;25402;42.004;23.088;2022-11-20T14:40:05;10.88;;;2.30;;
39728;SDS011;25402;42.004;23.088;2022-11-20T14:42:54;12.93;;;2.85;;
39728;SDS011;25402;42.004;23.088;2022-11-20T14:45:48;11.50;;;2.05;;
39728;SDS011;25402;42.004;23.088;2022-11-20T14:48:38;17.40;;;2.30;;
39728;SDS011;25402;42.004;23.088;2022-11-20T14:51:27;11.75;;;2.35;;
39728;SDS011;25402;42.004;23.088;2022-11-20T14:54:10;11.02;;;2.17;;
39728;SDS011;25402;42.004;23.088;2022-11-20T14:56:55;23.27;;;2.35;;
39728;SDS011;25402;42.004;23.088;2022-11-20T14:59:32;17.73;;;2.47;;
39728;SDS011;25402;42.004;23.088;2022-11-20T15:02:05;15.73;;;2.42;;
39728;SDS011;25402;42.004;23.088;2022-11-20T15:04:44;11.83;;;2.37;;
39728;SDS011;25402;42.004;23.088;2022-11-20T15:07:23;14.82;;;3.13;;
39728;SDS011;25402;42.004;23.088;2022-11-20T15:12:58;18.08;;;3.15;;
39728;SDS011;25402;42.004;23.088;2022-11-20T15:15:46;24.17;;;3.72;;
39728;SDS011;25402;42.004;23.088;2022-11-20T15:21:28;20.33;;;3.40;;
39728;SDS011;25402;42.004;23.088;2022-11-20T15:24:00;33.15;;;4.03;;
39728;SDS011;25402;42.004;23.088;2022-11-20T15:26:28;21.45;;;4.15;;
39728;SDS011;25402;42.004;23.088;2022-11-20T15:29:15;18.88;;;3.05;;
39728;SDS011;25402;42.004;23.088;2022-11-20T15:31:55;19.00;;;3.83;;
39728;SDS011;25402;42.004;23.088;2022-11-20T15:34:42;24.88;;;3.95;;
39728;SDS011;25402;42.004;23.088;2022-11-20T15:37:30;15.50;;;3.58;;
39728;SDS011;25402;42.004;23.088;2022-11-20T15:40:14;26.77;;;3.80;;
39728;SDS011;25402;42.004;23.088;2022-11-20T15:42:46;22.25;;;4.18;;
39728;SDS011;25402;42.004;23.088;2022-11-20T15:45:43;20.70;;;3.50;;
39728;SDS011;25402;42.004;23.088;2022-11-20T15:48:34;24.15;;;4.05;;
39728;SDS011;25402;42.004;23.088;2022-11-20T15:51:17;23.27;;;4.07;;
39728;SDS011;25402;42.004;23.088;2022-11-20T15:54:18;27.80;;;3.30;;
39728;SDS011;25402;42.004;23.088;2022-11-20T15:56:55;29.90;;;3.70;;
39728;SDS011;25402;42.004;23.088;2022-11-20T15:59:57;17.15;;;3.00;;
39728;SDS011;25402;42.004;23.088;2022-11-20T16:02:43;17.08;;;2.85;;
39728;SDS011;25402;42.004;23.088;2022-11-20T16:05:11;19.83;;;3.90;;
39728;SDS011;25402;42.004;23.088;2022-11-20T16:07:48;19.27;;;3.60;;
39728;SDS011;25402;42.004;23.088;2022-11-20T16:10:33;23.75;;;3.33;;
39728;SDS011;25402;42.004;23.088;2022-11-20T16:13:18;18.17;;;3.25;;
39728;SDS011;25402;42.004;23.088;2022-11-20T16:16:12;21.30;;;3.60;;
39728;SDS011;25402;42.004;23.088;2022-11-20T19:37:05;18.13;;;2.60;;
39728;SDS011;25402;42.004;23.088;2022-11-20T19:39:41;11.60;;;2.40;;
39728;SDS011;25402;42.004;23.088;2022-11-20T19:43:00;14.57;;;2.67;;
39728;SDS011;25402;42.004;23.088;2022-11-20T19:45:47;15.38;;;2.67;;
39728;SDS011;25402;42.004;23.088;2022-11-20T19:48:25;12.93;;;2.70;;
39728;SDS011;25402;42.004;23.088;2022-11-20T22:27:40;4.45;;;0.60;;
39728;SDS011;25402;42.004;23.088;2022-11-20T22:30:17;3.03;;;0.70;;
